Time;durP1;ratioP1;P1;durP2;ratioP2;P2;SDS_P1;SDS_P2;PMS_P1;PMS_P2;Temp;Humidity;BMP_temperature;BMP_pressure;BME280_temperature;BME280_humidity;BME280_pressure;Samples;Min_cycle;Max_cycle;Signal;HPM_P1;HPM_P2
2022/12/24 12:34:47;;;;;;;53.33;36.28;;;;;;;8.72;73.56;101227.69;1817751;78;21540;-57
2022/12/24 12:37:21;;;;;;;61.58;39.20;;;;;;;9.04;71.75;101223.14;1756731;80;21034;-57
2022/12/24 12:39:48;;;;;;;44.83;31.30;;;;;;;9.20;71.07;101216.95;1767538;80;21058;-57
2022/12/24 12:42:23;;;;;;;47.27;32.98;;;;;;;9.35;70.51;101212.05;1764050;80;21009;-57
2022/12/24 12:45:12;;;;;;;40.38;29.90;;;;;;;9.47;69.95;101211.50;1744070;80;21056;-57
2022/12/24 12:48:00;;;;;;;33.00;26.37;;;;;;;9.66;69.48;101212.17;1761835;80;21062;-58
2022/12/24 12:50:48;;;;;;;35.28;28.87;;;;;;;9.82;68.96;101217.19;1753549;80;21363;-57
2022/12/24 12:53:29;;;;;;;29.90;23.47;;;;;;;10.00;68.35;101219.13;1753236;80;21508;-57
2022/12/24 12:56:13;;;;;;;27.60;23.00;;;;;;;10.14;67.46;101225.91;1766005;80;21060;-57
2022/12/24 12:59:00;;;;;;;25.05;20.10;;;;;;;10.22;67.04;101225.38;1734666;82;21088;-58
2022/12/24 13:01:44;;;;;;;23.57;18.07;;;;;;;10.31;66.62;101227.88;1763608;80;21448;-57
2022/12/24 13:04:40;;;;;;;21.37;18.30;;;;;;;10.37;65.98;101232.99;1767957;80;21033;-57
2022/12/24 13:07:41;;;;;;;21.57;16.80;;;;;;;10.41;65.58;101231.20;1747278;80;21107;-57
2022/12/24 13:10:41;;;;;;;18.87;15.73;;;;;;;10.43;65.29;101236.81;1777418;80;21017;-57
2022/12/24 13:13:57;;;;;;;19.62;16.05;;;;;;;10.43;64.96;101234.20;1759464;80;21382;-57
2022/12/24 13:16:47;;;;;;;20.55;17.37;;;;;;;10.40;64.72;101233.40;1783410;79;21066;-57
2022/12/24 13:19:43;;;;;;;20.60;16.60;;;;;;;10.38;64.52;101232.55;1724481;81;21042;-57
2022/12/24 13:22:16;;;;;;;16.55;14.63;;;;;;;10.34;64.30;101229.58;1719062;82;21044;-57
2022/12/24 13:24:55;;;;;;;18.35;15.45;;;;;;;10.31;64.34;101233.07;1721761;82;21124;-57
2022/12/24 13:27:32;;;;;;;18.07;16.02;;;;;;;10.29;64.56;101232.66;1717508;81;20977;-57
2022/12/24 13:30:38;;;;;;;19.80;15.63;;;;;;;10.27;64.71;101232.69;1706122;82;21293;-57
2022/12/24 13:33:11;;;;;;;18.37;14.63;;;;;;;10.26;64.82;101221.85;1695265;83;21099;-57
2022/12/24 13:35:58;;;;;;;17.60;13.75;;;;;;;10.26;64.88;101227.05;1721947;82;21107;-57
2022/12/24 13:38:32;;;;;;;16.40;13.85;;;;;;;10.27;64.96;101214.92;1718087;82;21046;-57
2022/12/24 13:41:39;;;;;;;17.10;14.95;;;;;;;10.27;65.04;101211.02;1703095;83;21078;-57
2022/12/24 13:44:14;;;;;;;16.75;13.60;;;;;;;10.27;65.18;101213.63;1724682;82;21068;-57
2022/12/24 13:47:05;;;;;;;15.72;13.93;;;;;;;10.29;65.29;101219.66;1725707;82;21058;-57
2022/12/24 13:49:43;;;;;;;16.05;12.95;;;;;;;10.31;65.35;101216.59;1689296;83;21343;-57
2022/12/24 13:52:17;;;;;;;16.30;14.55;;;;;;;10.41;64.99;101217.76;1709567;82;21042;-57
2022/12/24 13:55:01;;;;;;;17.40;14.95;;;;;;;10.40;64.72;101221.69;1722648;82;21048;-57
2022/12/24 13:57:46;;;;;;;20.27;16.37;;;;;;;10.37;64.68;101225.62;1713792;82;21042;-57
2022/12/24 14:00:30;;;;;;;18.35;15.20;;;;;;;10.36;64.60;101225.22;1756868;80;21014;-57
2022/12/24 14:03:06;;;;;;;22.73;16.75;;;;;;;10.23;65.15;101221.05;1726366;82;21022;-57
2022/12/24 14:05:43;;;;;;;26.42;20.68;;;;;;;10.17;65.45;101235.42;1734213;81;21101;-57
2022/12/24 14:08:15;;;;;;;27.77;20.45;;;;;;;10.02;65.90;101235.14;1733482;82;21474;-57
2022/12/24 14:11:05;;;;;;;26.93;19.15;;;;;;;9.97;66.03;101237.37;1680971;83;21553;-57
2022/12/24 14:13:43;;;;;;;22.13;17.35;;;;;;;9.95;66.14;101233.94;1674784;84;21018;-56
2022/12/24 14:16:26;;;;;;;23.70;18.42;;;;;;;9.92;66.21;101232.23;1683752;84;21060;-57
2022/12/24 14:19:21;;;;;;;24.80;18.00;;;;;;;10.02;66.08;101229.06;1659427;85;21062;-56
2022/12/24 14:22:12;;;;;;;28.30;20.70;;;;;;;10.02;66.22;101231.66;1609585;87;21810;-57
2022/12/24 14:24:45;;;;;;;26.93;20.37;;;;;;;10.03;66.06;101241.20;1637808;86;21112;-58
2022/12/24 14:27:19;;;;;;;27.95;20.90;;;;;;;10.02;65.86;101236.87;1673206;84;21051;-57
2022/12/24 14:30:01;;;;;;;25.25;19.67;;;;;;;10.00;65.96;101237.33;1665793;85;21046;-58
2022/12/24 14:32:35;;;;;;;28.87;21.30;;;;;;;10.00;66.00;101236.02;1591882;87;21594;-58
2022/12/24 14:35:18;;;;;;;26.12;20.92;;;;;;;10.00;65.80;101225.62;1598405;87;21597;-58
2022/12/24 14:37:49;;;;;;;23.95;19.15;;;;;;;9.98;65.80;101228.25;1601825;88;21164;-58
2022/12/24 14:40:28;;;;;;;25.08;19.62;;;;;;;9.97;65.78;101232.17;1605524;87;21474;-58
2022/12/24 14:43:21;;;;;;;22.02;18.37;;;;;;;9.97;65.80;101233.48;1588821;87;21081;-57
2022/12/24 14:46:13;;;;;;;23.50;18.82;;;;;;;9.94;65.98;101230.47;1585653;89;21619;-57
2022/12/24 14:48:55;;;;;;;25.68;19.87;;;;;;;9.93;66.04;101233.09;1588079;89;21102;-57
2022/12/24 14:51:27;;;;;;;25.00;19.55;;;;;;;9.96;65.97;101236.94;1586558;89;21541;-57
2022/12/24 14:54:11;;;;;;;27.65;21.35;;;;;;;9.93;66.05;101239.59;1601010;87;21114;-57
2022/12/24 14:56:38;;;;;;;27.80;21.37;;;;;;;9.94;65.83;101246.50;1611827;88;21565;-57
2022/12/24 14:59:19;;;;;;;30.32;23.87;;;;;;;9.91;65.91;101238.75;1602314;88;21113;-57
2022/12/24 15:01:46;;;;;;;29.85;22.35;;;;;;;9.91;65.93;101242.22;1604171;88;21074;-57
2022/12/24 15:04:16;;;;;;;30.95;23.73;;;;;;;9.93;65.92;101256.48;1579365;88;21148;-57
2022/12/24 15:06:48;;;;;;;35.03;26.27;;;;;;;9.95;65.75;101259.93;1601306;87;21030;-57
2022/12/24 15:09:29;;;;;;;33.05;25.70;;;;;;;9.95;65.59;101264.70;1612982;86;21045;-57
2022/12/24 15:11:59;;;;;;;36.35;26.25;;;;;;;9.93;65.50;101266.89;1700796;82;21098;-57
2022/12/24 15:14:27;;;;;;;36.93;28.23;;;;;;;9.92;65.66;101271.65;1747494;81;21419;-57
2022/12/24 15:17:00;;;;;;;38.78;28.05;;;;;;;9.91;65.61;101269.95;1743646;81;20985;-57
2022/12/24 15:19:37;;;;;;;33.88;27.30;;;;;;;9.90;65.57;101278.17;1735198;81;21072;-57
2022/12/24 15:22:10;;;;;;;35.73;27.60;;;;;;;9.92;65.39;101282.05;1643579;85;21595;-57
2022/12/24 15:24:46;;;;;;;36.77;27.65;;;;;;;9.91;65.16;101276.44;1641933;87;21094;-57
2022/12/24 15:27:26;;;;;;;36.40;28.45;;;;;;;9.90;64.96;101269.08;1634731;86;21049;-57
2022/12/24 15:29:57;;;;;;;43.28;33.98;;;;;;;9.87;64.97;101261.30;1637560;85;21116;-57
2022/12/24 15:32:24;;;;;;;47.73;38.40;;;;;;;9.85;64.77;101258.72;1649599;85;21017;-57
2022/12/24 15:34:53;;;;;;;46.90;35.23;;;;;;;9.85;64.62;101254.82;1701062;84;21010;-57
2022/12/24 15:37:23;;;;;;;38.17;29.50;;;;;;;9.84;64.57;101246.62;1709684;82;21581;-57
2022/12/24 15:40:14;;;;;;;34.05;25.80;;;;;;;9.84;64.38;101240.55;1698731;83;21051;-57
2022/12/24 15:42:41;;;;;;;40.35;31.25;;;;;;;9.83;64.33;101247.91;1604257;88;21065;-56
2022/12/24 15:45:18;;;;;;;46.18;34.90;;;;;;;9.80;64.57;101254.03;1613937;88;21553;-56
2022/12/24 15:48:06;;;;;;;44.15;32.58;;;;;;;9.80;64.73;101255.33;1570578;89;21131;-57
2022/12/24 15:50:35;;;;;;;36.28;27.73;;;;;;;9.77;64.87;101257.94;1575039;89;21598;-57
2022/12/24 15:53:09;;;;;;;44.10;31.05;;;;;;;9.79;64.94;101258.78;1571609;89;21186;-57
2022/12/24 15:55:38;;;;;;;40.90;28.20;;;;;;;9.79;64.92;101250.98;1530664;92;21146;-57
2022/12/24 15:58:24;;;;;;;34.40;26.65;;;;;;;9.80;64.98;101251.42;1523949;92;21119;-57
2022/12/24 16:01:14;;;;;;;34.25;26.15;;;;;;;9.81;65.14;101243.17;1525285;92;21074;-57
2022/12/24 16:03:54;;;;;;;31.07;23.80;;;;;;;9.82;65.32;101244.48;1446129;98;21140;-57
2022/12/24 16:06:22;;;;;;;27.42;22.05;;;;;;;9.84;65.44;101244.45;1436532;98;21151;-57
2022/12/24 16:08:50;;;;;;;31.97;25.32;;;;;;;9.87;65.52;101242.27;1436744;98;21097;-57
2022/12/24 16:11:29;;;;;;;29.52;22.55;;;;;;;9.87;65.62;101239.66;1443932;98;21183;-57
2022/12/24 16:14:16;;;;;;;26.45;21.45;;;;;;;9.87;65.89;101237.06;1430693;98;21106;-58
2022/12/24 16:16:46;;;;;;;26.70;21.85;;;;;;;9.90;65.99;101242.21;1427821;98;21163;-58
2022/12/24 16:19:27;;;;;;;28.83;21.45;;;;;;;9.92;66.04;101237.85;1495047;90;21137;-57
2022/12/24 16:21:57;;;;;;;29.20;21.70;;;;;;;9.92;66.24;101232.66;1510873;93;21141;-57
2022/12/24 16:24:26;;;;;;;28.38;20.85;;;;;;;9.92;66.40;101236.13;1525924;93;21124;-58
2022/12/24 16:26:53;;;;;;;31.25;22.35;;;;;;;9.95;66.57;101237.84;1529603;93;21600;-58
2022/12/24 16:29:19;;;;;;;28.73;22.42;;;;;;;9.97;66.69;101236.08;1519529;92;21054;-58
2022/12/24 16:31:50;;;;;;;28.35;22.13;;;;;;;9.99;66.63;101229.13;1526680;93;21085;-57
2022/12/24 16:34:16;;;;;;;29.25;22.85;;;;;;;10.01;66.64;101233.86;1518150;93;21120;-58
2022/12/24 16:36:44;;;;;;;29.82;22.35;;;;;;;10.01;66.71;101243.83;1532685;92;21093;-58
2022/12/24 16:39:22;;;;;;;31.37;24.55;;;;;;;10.03;66.85;101239.91;1519569;93;21198;-58
2022/12/24 16:44:40;;;;;;;29.02;21.90;;;;;;;10.07;66.92;101245.06;1539822;91;21568;-58
2022/12/24 16:47:11;;;;;;;28.60;22.32;;;;;;;10.10;66.79;101245.47;1536434;93;21089;-58
2022/12/24 16:49:38;;;;;;;28.90;21.60;;;;;;;10.11;66.92;101244.61;1536900;93;21556;-58
2022/12/24 16:52:06;;;;;;;27.65;22.30;;;;;;;10.13;67.03;101248.91;1546009;90;21085;-58
2022/12/24 16:54:34;;;;;;;27.15;20.88;;;;;;;10.15;67.13;101248.45;1583840;90;21100;-59
2022/12/24 16:57:00;;;;;;;28.42;21.80;;;;;;;10.17;66.95;101248.00;1583456;90;21556;-58
2022/12/24 16:59:27;;;;;;;29.48;22.20;;;;;;;10.19;66.91;101253.17;1645162;82;21081;-58
2022/12/24 17:01:55;;;;;;;26.70;21.42;;;;;;;10.20;66.81;101258.81;1744040;81;21030;-58
2022/12/24 17:04:22;;;;;;;27.35;21.10;;;;;;;10.21;66.87;101254.02;1739812;81;21022;-58
2022/12/24 17:06:49;;;;;;;25.65;19.82;;;;;;;10.24;66.83;101253.98;1714974;81;21564;-58
2022/12/24 17:09:16;;;;;;;29.98;21.33;;;;;;;10.25;66.62;101245.30;1717281;83;21054;-58
2022/12/24 17:11:43;;;;;;;28.38;21.62;;;;;;;10.26;66.57;101244.42;1662049;84;21047;-57
2022/12/24 17:14:12;;;;;;;28.67;22.20;;;;;;;10.28;66.58;101253.91;1726038;81;21485;-58
2022/12/24 17:16:39;;;;;;;27.00;21.07;;;;;;;10.29;66.63;101254.34;1734384;81;21008;-58
2022/12/24 17:19:07;;;;;;;25.85;21.48;;;;;;;10.30;66.74;101255.20;1778593;79;21096;-58
2022/12/24 17:21:35;;;;;;;27.93;21.00;;;;;;;10.32;66.67;101256.92;1769289;79;21042;-58
2022/12/24 17:24:02;;;;;;;26.17;21.02;;;;;;;10.34;66.53;101255.16;1747367;80;21014;-58
2022/12/24 17:26:30;;;;;;;26.37;20.45;;;;;;;10.37;66.46;101263.34;1744623;80;21549;-58
2022/12/24 17:28:57;;;;;;;25.77;19.67;;;;;;;10.37;66.43;101260.73;1791314;79;21501;-58
2022/12/24 17:31:24;;;;;;;26.55;21.42;;;;;;;10.38;66.46;101259.88;1796542;79;21048;-59
2022/12/24 17:33:51;;;;;;;26.90;20.43;;;;;;;10.40;66.43;101263.31;1786879;79;21529;-58
2022/12/24 17:36:18;;;;;;;29.12;21.55;;;;;;;10.41;66.26;101266.32;1796124;79;21018;-57
2022/12/24 17:38:45;;;;;;;24.85;20.37;;;;;;;10.43;66.29;101262.83;1794960;79;21026;-58
2022/12/24 17:41:14;;;;;;;26.52;19.92;;;;;;;10.44;66.33;101262.39;1802465;79;21023;-58
2022/12/24 17:43:41;;;;;;;25.05;20.68;;;;;;;10.45;66.27;101270.17;1817779;79;20994;-58
2022/12/24 17:46:14;;;;;;;26.77;20.57;;;;;;;10.46;66.24;101271.03;1793942;79;21554;-58
2022/12/24 17:48:41;;;;;;;27.58;21.12;;;;;;;10.47;66.12;101272.74;1735135;81;21555;-57
2022/12/24 17:51:10;;;;;;;27.70;20.45;;;;;;;10.47;66.03;101272.74;1730882;82;21042;-58
2022/12/24 17:53:39;;;;;;;24.82;19.00;;;;;;;10.46;66.08;101276.24;1734253;81;21128;-58
2022/12/24 17:56:07;;;;;;;24.43;18.75;;;;;;;10.45;66.17;101274.50;1742677;82;20989;-58
2022/12/24 17:58:33;;;;;;;26.35;19.25;;;;;;;10.44;66.17;101279.30;1726293;81;22401;-58
2022/12/24 18:01:00;;;;;;;26.55;20.17;;;;;;;10.45;66.15;101281.01;1729965;81;21073;-57
2022/12/24 18:03:27;;;;;;;27.73;19.07;;;;;;;10.45;66.03;101279.70;1724579;82;21074;-58
2022/12/24 18:05:53;;;;;;;25.92;18.92;;;;;;;10.44;66.13;101272.80;1732732;81;21038;-58
2022/12/24 18:08:22;;;;;;;26.90;19.92;;;;;;;10.44;66.25;101271.06;1733850;82;21042;-57
2022/12/24 18:10:48;;;;;;;22.95;18.75;;;;;;;10.44;66.29;101280.17;1722872;82;21493;-58
2022/12/24 18:13:15;;;;;;;24.10;19.25;;;;;;;10.46;66.29;101277.11;1724168;81;21654;-57
2022/12/24 18:15:41;;;;;;;23.35;19.17;;;;;;;10.46;66.24;101278.84;1724938;82;21046;-58
2022/12/24 18:18:08;;;;;;;25.60;20.12;;;;;;;10.47;66.33;101285.75;1719816;82;21064;-58
2022/12/24 18:20:35;;;;;;;26.10;20.77;;;;;;;10.46;66.36;101286.65;1724788;82;21069;-57
2022/12/24 18:23:02;;;;;;;25.70;20.68;;;;;;;10.47;66.52;101290.95;1730819;82;21028;-58
2022/12/24 18:25:29;;;;;;;26.45;20.80;;;;;;;10.49;66.57;101287.89;1748605;82;21089;-58
2022/12/24 18:27:56;;;;;;;26.87;19.90;;;;;;;10.50;66.51;101285.30;1713482;82;21037;-57
2022/12/24 18:30:22;;;;;;;25.75;19.45;;;;;;;10.52;66.54;101282.23;1734659;81;21038;-58
2022/12/24 18:32:49;;;;;;;25.75;21.10;;;;;;;10.55;66.50;101291.75;1730483;81;21116;-58
2022/12/24 18:35:17;;;;;;;27.25;20.97;;;;;;;10.54;66.38;101286.97;1740369;81;21049;-59
2022/12/24 18:37:43;;;;;;;26.30;20.30;;;;;;;10.55;66.34;101286.55;1733014;81;21073;-58
2022/12/24 18:40:12;;;;;;;26.37;20.10;;;;;;;10.55;66.46;101287.84;1734944;82;21532;-58
2022/12/24 18:42:40;;;;;;;27.93;20.97;;;;;;;10.56;66.61;101284.34;1727095;81;21523;-58
2022/12/24 18:45:09;;;;;;;26.07;19.92;;;;;;;10.58;66.63;101283.88;1756998;78;21074;-58
2022/12/24 18:47:36;;;;;;;26.85;21.55;;;;;;;10.53;66.73;101285.70;1798814;79;21053;-58
2022/12/24 18:50:03;;;;;;;27.50;21.42;;;;;;;10.54;66.72;101286.97;1777500;79;21048;-58
2022/12/24 18:52:31;;;;;;;27.25;21.12;;;;;;;10.56;66.87;101290.84;1785277;79;20979;-57
2022/12/24 18:54:57;;;;;;;28.83;22.22;;;;;;;10.57;66.97;101286.92;1799908;79;20986;-58
2022/12/24 18:57:24;;;;;;;27.45;22.00;;;;;;;10.59;67.12;101293.42;1792975;79;21116;-58
2022/12/24 18:59:51;;;;;;;27.07;21.90;;;;;;;10.59;67.06;101295.56;1781656;79;21026;-58
2022/12/24 19:02:18;;;;;;;28.50;21.97;;;;;;;10.61;67.04;101294.27;1787061;79;21001;-58
2022/12/24 19:04:45;;;;;;;25.92;19.75;;;;;;;10.63;67.03;101305.52;1795628;79;21018;-58
2022/12/24 19:07:13;;;;;;;26.50;21.57;;;;;;;10.64;67.20;101300.71;1790985;79;21055;-58
2022/12/24 19:09:40;;;;;;;27.93;21.25;;;;;;;10.67;67.20;101298.09;1783637;79;21026;-58
2022/12/24 19:12:07;;;;;;;27.67;21.97;;;;;;;10.69;67.17;101300.23;1784408;79;21084;-57
2022/12/24 19:14:34;;;;;;;29.35;23.90;;;;;;;10.72;66.99;101296.69;1802112;79;21524;-57
2022/12/24 19:17:00;;;;;;;26.75;21.45;;;;;;;10.73;67.05;101301.91;1809664;78;21030;-58
2022/12/24 19:19:27;;;;;;;30.02;22.35;;;;;;;10.74;67.04;101292.36;1818159;79;20951;-57
2022/12/24 19:21:54;;;;;;;30.27;23.77;;;;;;;10.75;67.14;101301.44;1798294;79;21494;-58
2022/12/24 19:24:21;;;;;;;27.25;21.65;;;;;;;10.77;67.09;101303.58;1817901;79;21046;-58
2022/12/24 19:26:48;;;;;;;27.35;23.12;;;;;;;10.79;67.04;101299.21;1792470;79;21033;-58
2022/12/24 19:29:14;;;;;;;30.52;22.90;;;;;;;10.81;66.98;101302.66;1792935;79;21116;-58
2022/12/24 19:31:45;;;;;;;29.85;23.60;;;;;;;10.83;67.07;101302.19;1795715;79;21062;-58
2022/12/24 19:34:09;;;;;;;29.55;23.10;;;;;;;10.85;67.12;101305.64;1807933;79;21034;-58
2022/12/24 19:36:36;;;;;;;31.05;24.15;;;;;;;10.86;67.05;101306.03;1817723;79;21096;-57
2022/12/24 19:39:03;;;;;;;36.30;26.55;;;;;;;10.87;66.94;101309.08;1817808;79;20998;-57
2022/12/24 19:41:30;;;;;;;30.77;23.90;;;;;;;10.86;66.77;101311.24;1777680;79;21116;-58
2022/12/24 19:44:00;;;;;;;33.55;26.00;;;;;;;10.86;66.32;101315.61;1787997;79;21517;-58
2022/12/24 19:46:30;;;;;;;36.42;26.60;;;;;;;10.86;65.82;101320.36;1775226;79;21755;-58
2022/12/24 19:49:00;;;;;;;37.70;28.10;;;;;;;10.85;65.35;101321.69;1779489;79;21017;-58
2022/12/24 19:51:27;;;;;;;37.85;28.15;;;;;;;10.81;65.01;101318.70;1797800;79;21478;-58
2022/12/24 19:53:54;;;;;;;37.45;28.38;;;;;;;10.76;64.94;101326.57;1797048;79;21061;-57
2022/12/24 19:56:22;;;;;;;38.60;31.15;;;;;;;10.71;64.88;101324.49;1795745;78;22670;-57
2022/12/24 19:58:49;;;;;;;41.55;31.10;;;;;;;10.67;65.00;101324.11;1789408;79;20994;-58
2022/12/24 20:01:21;;;;;;;42.33;30.30;;;;;;;10.63;64.98;101323.73;1795532;79;21057;-58
2022/12/24 20:03:49;;;;;;;37.35;29.50;;;;;;;10.60;64.95;101327.66;1704792;82;21101;-57
2022/12/24 20:06:17;;;;;;;40.10;32.38;;;;;;;10.57;64.95;101331.62;1715906;81;21032;-57
2022/12/24 20:08:45;;;;;;;37.95;30.97;;;;;;;10.53;64.77;101328.64;1720878;82;21030;-58
2022/12/24 20:11:16;;;;;;;43.87;34.58;;;;;;;10.48;64.80;101329.12;1717157;82;21059;-58
2022/12/24 20:13:44;;;;;;;40.48;32.58;;;;;;;10.41;64.68;101322.25;1714628;82;21024;-58
2022/12/24 20:16:17;;;;;;;40.38;30.70;;;;;;;10.35;64.58;101327.53;1705754;81;21055;-58
2022/12/24 20:18:44;;;;;;;42.43;31.97;;;;;;;10.26;64.54;101321.16;1699281;82;21138;-57
2022/12/24 20:21:12;;;;;;;45.15;35.75;;;;;;;10.17;64.54;101323.84;1697939;81;21092;-58
2022/12/24 20:23:39;;;;;;;48.50;34.50;;;;;;;10.07;64.91;101329.56;1713092;81;21133;-58
2022/12/24 20:26:07;;;;;;;56.75;39.10;;;;;;;9.99;64.88;101325.31;1709841;82;21013;-58
2022/12/24 20:28:35;;;;;;;59.05;40.80;;;;;;;9.88;65.08;101321.95;1756991;79;21049;-57
2022/12/24 20:31:11;;;;;;;49.80;37.80;;;;;;;9.79;65.34;101322.46;1801289;78;21517;-57
2022/12/24 20:33:39;;;;;;;60.73;40.17;;;;;;;9.72;65.40;101319.52;1815908;79;21041;-57
2022/12/24 20:36:10;;;;;;;77.00;53.95;;;;;;;9.64;65.46;101323.89;1793291;79;21066;-57
2022/12/24 20:38:37;;;;;;;67.15;49.40;;;;;;;9.56;65.65;101324.40;1796405;79;20999;-58
2022/12/24 20:41:04;;;;;;;59.20;42.23;;;;;;;9.48;65.92;101324.91;1803250;78;20979;-58
2022/12/24 20:43:33;;;;;;;55.20;40.38;;;;;;;9.43;66.18;101327.99;1793286;79;21070;-57
2022/12/24 20:45:59;;;;;;;57.55;38.95;;;;;;;9.41;66.43;101330.17;1813360;79;21038;-58
2022/12/24 20:48:26;;;;;;;48.68;36.08;;;;;;;9.41;66.60;101331.05;1804793;79;20998;-57
2022/12/24 20:50:54;;;;;;;54.42;39.80;;;;;;;9.44;66.52;101329.70;1779759;79;21462;-58
2022/12/24 20:53:21;;;;;;;63.98;44.67;;;;;;;9.45;66.38;101332.73;1795851;79;21029;-57
2022/12/24 20:55:52;;;;;;;61.15;43.20;;;;;;;9.41;66.29;101334.94;1799935;79;20998;-57
2022/12/24 20:58:19;;;;;;;67.50;49.48;;;;;;;9.37;66.44;101335.84;1801045;79;21028;-57
2022/12/24 21:00:46;;;;;;;73.72;53.38;;;;;;;9.33;66.52;101340.62;1790364;79;21507;-57
2022/12/24 21:03:14;;;;;;;77.90;54.55;;;;;;;9.32;66.72;101337.59;1779100;79;21089;-58
2022/12/24 21:05:41;;;;;;;78.30;57.03;;;;;;;9.33;66.74;101341.92;1813427;79;21006;-57
2022/12/24 21:08:08;;;;;;;81.10;59.63;;;;;;;9.34;66.75;101347.53;1804927;79;21010;-57
2022/12/24 21:10:35;;;;;;;83.58;59.80;;;;;;;9.37;66.62;101342.33;1784932;79;20996;-58
2022/12/24 21:13:03;;;;;;;83.42;60.80;;;;;;;9.36;66.73;101340.59;1808542;79;21456;-58
2022/12/24 21:15:38;;;;;;;91.37;65.35;;;;;;;9.35;66.73;101336.28;1779564;79;21053;-58
2022/12/24 21:18:10;;;;;;;91.95;66.70;;;;;;;9.38;66.67;101346.63;1794048;79;20986;-58
2022/12/24 21:20:34;;;;;;;89.25;64.17;;;;;;;9.38;66.69;101340.14;1806203;79;22372;-57
2022/12/24 21:23:01;;;;;;;87.90;61.95;;;;;;;9.37;66.58;101343.62;1802637;79;21054;-58
2022/12/24 21:25:28;;;;;;;88.15;62.27;;;;;;;9.35;66.43;101341.91;1805543;79;21495;-58
2022/12/24 21:27:54;;;;;;;84.05;59.77;;;;;;;9.28;66.71;101338.91;1803475;79;21041;-57
2022/12/24 21:30:23;;;;;;;81.75;59.65;;;;;;;9.26;67.01;101338.94;1791105;79;20994;-57
2022/12/24 21:32:50;;;;;;;76.20;55.38;;;;;;;9.26;67.15;101336.34;1780480;79;21049;-58
2022/12/24 21:35:18;;;;;;;78.15;54.58;;;;;;;9.30;67.24;101340.64;1799423;79;21578;-57
2022/12/24 21:37:44;;;;;;;62.98;46.98;;;;;;;9.32;67.27;101344.08;1787574;79;21499;-58
2022/12/24 21:40:12;;;;;;;57.50;42.00;;;;;;;9.37;67.29;101339.73;1776842;79;21097;-58
2022/12/24 21:42:38;;;;;;;53.08;39.35;;;;;;;9.43;67.28;101340.98;1787181;79;21117;-58
2022/12/24 21:45:07;;;;;;;49.18;36.55;;;;;;;9.49;67.24;101339.63;1796601;79;21054;-57
2022/12/24 21:47:35;;;;;;;49.20;36.35;;;;;;;9.54;67.03;101339.14;1793084;79;21077;-58
2022/12/24 21:54:21;;;;;;;43.35;33.02;;;;;;;9.61;66.79;101334.33;1798021;79;21111;-57
2022/12/24 21:55:17;;;;;;;43.48;32.03;;;;;;;9.63;66.77;101327.38;1811531;79;21065;-57
2022/12/24 21:57:53;;;;;;;43.55;31.68;;;;;;;9.66;66.70;101322.61;1808915;79;21029;-58
2022/12/24 22:00:21;;;;;;;39.20;30.05;;;;;;;9.66;66.58;101318.27;1796625;79;21026;-57
2022/12/24 22:02:56;;;;;;;40.80;32.08;;;;;;;9.63;66.44;101313.52;1804882;79;21065;-57
2022/12/24 22:05:23;;;;;;;38.15;31.15;;;;;;;9.61;66.37;101310.95;1801569;79;20986;-58
2022/12/24 22:13:23;;;;;;;50.33;39.42;;;;;;;9.54;66.66;101318.36;1743931;82;21053;-58
2022/12/24 22:15:51;;;;;;;43.98;33.63;;;;;;;9.55;66.79;101326.59;1817317;79;20974;-59
2022/12/24 22:18:20;;;;;;;44.38;33.65;;;;;;;9.58;66.76;101328.31;1800815;79;21054;-58
2022/12/24 22:20:47;;;;;;;41.95;32.20;;;;;;;9.58;66.73;101329.14;1779912;79;21006;-58
2022/12/24 22:23:14;;;;;;;40.12;31.68;;;;;;;9.58;66.63;101326.55;1792876;79;21022;-59
2022/12/24 22:25:41;;;;;;;38.38;30.52;;;;;;;9.54;66.56;101324.84;1796940;79;21097;-58
2022/12/24 22:28:07;;;;;;;37.17;29.45;;;;;;;9.49;66.58;101323.17;1810017;79;21031;-58
2022/12/24 22:30:38;;;;;;;38.92;29.92;;;;;;;9.43;66.72;101329.30;1798466;78;21494;-58
2022/12/24 22:33:06;;;;;;;40.90;29.63;;;;;;;9.37;66.76;101325.45;1808563;79;21052;-58
2022/12/24 22:35:32;;;;;;;37.78;29.45;;;;;;;9.33;67.05;101330.23;1795244;78;21257;-58
2022/12/24 22:37:59;;;;;;;41.55;31.52;;;;;;;9.33;67.24;101331.54;1780327;79;20995;-59
2022/12/24 22:40:26;;;;;;;39.35;31.62;;;;;;;9.34;67.32;101334.55;1780582;79;21514;-58
2022/12/24 22:42:53;;;;;;;36.60;28.75;;;;;;;9.38;67.31;101336.24;1791253;79;20995;-56
2022/12/24 22:45:20;;;;;;;40.00;30.52;;;;;;;9.41;67.26;101337.53;1781979;79;21035;-56
2022/12/24 22:47:47;;;;;;;39.75;29.42;;;;;;;9.39;67.22;101336.69;1797915;79;21467;-56
2022/12/24 22:50:13;;;;;;;33.38;27.95;;;;;;;9.39;67.17;101339.28;1793476;79;21017;-56
2022/12/24 22:52:42;;;;;;;39.27;30.20;;;;;;;9.35;67.12;101341.48;1783619;79;21078;-56
2022/12/24 22:55:08;;;;;;;38.50;29.57;;;;;;;9.32;67.42;101345.38;1806658;79;21048;-56
2022/12/24 22:57:35;;;;;;;38.85;30.20;;;;;;;9.33;67.48;101353.61;1795084;79;21037;-56
2022/12/24 23:00:09;;;;;;;39.92;30.68;;;;;;;9.32;67.38;101349.70;1792508;79;21064;-56
2022/12/24 23:02:36;;;;;;;40.43;30.35;;;;;;;9.30;67.59;101352.32;1720884;81;21119;-59
2022/12/24 23:05:04;;;;;;;42.10;31.57;;;;;;;9.34;67.70;101347.53;1719818;82;21056;-59
2022/12/24 23:07:30;;;;;;;40.38;29.92;;;;;;;9.40;67.74;101350.08;1706078;81;21003;-58
2022/12/24 23:09:58;;;;;;;39.23;29.92;;;;;;;9.44;67.60;101348.31;1718107;82;21101;-59
2022/12/24 23:15:11;;;;;;;41.30;30.37;;;;;;;9.42;67.58;101345.73;1722917;81;21083;-58
2022/12/24 23:17:37;;;;;;;37.60;29.92;;;;;;;9.43;67.64;101344.01;1711705;83;21092;-58
2022/12/24 23:20:05;;;;;;;40.30;29.72;;;;;;;9.42;67.64;101347.03;1726488;82;21021;-59
2022/12/24 23:22:32;;;;;;;39.90;31.60;;;;;;;9.43;67.69;101346.17;1672973;85;21087;-58
2022/12/24 23:24:59;;;;;;;39.25;30.15;;;;;;;9.46;67.74;101350.03;1719206;81;21693;-59
2022/12/24 23:27:25;;;;;;;38.40;29.80;;;;;;;9.51;67.82;101352.59;1739119;81;21031;-59
2022/12/24 23:29:52;;;;;;;38.30;29.55;;;;;;;9.55;67.75;101357.77;1715144;81;21041;-58
2022/12/24 23:32:19;;;;;;;38.45;30.20;;;;;;;9.58;67.73;101357.72;1706921;82;21100;-58
2022/12/24 23:34:46;;;;;;;38.63;30.82;;;;;;;9.60;67.69;101353.38;1782408;79;20998;-58
2022/12/24 23:37:13;;;;;;;40.28;31.37;;;;;;;9.59;67.47;101351.67;1792182;79;21023;-58
2022/12/24 23:39:39;;;;;;;40.60;30.48;;;;;;;9.55;67.53;101355.17;1797578;79;21065;-59
2022/12/24 23:42:06;;;;;;;39.23;30.27;;;;;;;9.52;67.49;101368.16;1810966;79;21002;-59
2022/12/24 23:44:32;;;;;;;39.08;31.00;;;;;;;9.47;67.63;101371.25;1812401;79;21263;-58
2022/12/24 23:46:59;;;;;;;41.80;32.45;;;;;;;9.40;67.71;101378.65;1792460;79;21070;-58
2022/12/24 23:49:27;;;;;;;45.00;34.60;;;;;;;9.35;67.76;101382.16;1783092;79;21505;-58
2022/12/24 23:51:54;;;;;;;49.93;37.23;;;;;;;9.28;68.07;101389.13;1791491;79;21035;-56
2022/12/24 23:54:21;;;;;;;73.00;41.05;;;;;;;9.31;67.82;101390.42;1787432;78;21559;-56
2022/12/24 23:56:48;;;;;;;62.60;44.58;;;;;;;9.30;67.78;101402.09;1798079;78;21017;-56
2022/12/24 23:59:14;;;;;;;62.88;46.73;;;;;;;9.25;67.88;101404.75;1785175;79;21497;-56
